Time;durP1;ratioP1;P1;durP2;ratioP2;P2;SDS_P1;SDS_P2;PMS_P1;PMS_P2;Temp;Humidity;BMP_temperature;BMP_pressure;BME280_temperature;BME280_humidity;BME280_pressure;Samples;Min_cycle;Max_cycle;Signal;HPM_P1;HPM_P2
2021/11/01 00:00:42;;;;;;;2.87;1.53;;;16.60;1.00;;;;;;5035846;28;20213;-66
2021/11/01 00:03:08;;;;;;;0.40;0.20;;;16.60;1.00;;;;;;5035740;28;20478;-67
2021/11/01 00:05:34;;;;;;;0.40;0.20;;;16.70;1.00;;;;;;5018241;28;20431;-66
2021/11/01 00:07:59;;;;;;;0.87;0.67;;;16.80;1.00;;;;;;5035133;28;20420;-66
2021/11/01 00:10:25;;;;;;;0.40;0.30;;;16.80;99.90;;;;;;5035587;28;20184;-66
2021/11/01 00:12:51;;;;;;;0.40;0.20;;;16.80;1.00;;;;;;5035750;28;20201;-69
2021/11/01 00:15:16;;;;;;;0.50;0.40;;;16.70;99.90;;;;;;5035874;28;20174;-67
2021/11/01 00:17:42;;;;;;;0.50;0.20;;;16.80;99.90;;;;;;5035195;28;20288;-65
2021/11/01 00:20:09;;;;;;;0.40;0.20;;;16.80;99.90;;;;;;5035086;28;20503;-66
2021/11/01 00:22:36;;;;;;;0.40;0.10;;;16.80;99.90;;;;;;5017518;28;20185;-68
2021/11/01 00:25:04;;;;;;;0.40;0.20;;;16.90;99.90;;;;;;5018082;28;20429;-69
2021/11/01 00:27:30;;;;;;;0.40;0.20;;;16.80;1.00;;;;;;5035298;28;20429;-70
2021/11/01 00:29:56;;;;;;;0.40;0.10;;;17.00;1.00;;;;;;5034909;28;20439;-69
2021/11/01 00:32:21;;;;;;;0.40;0.20;;;17.00;1.00;;;;;;5018155;28;20185;-66
2021/11/01 00:34:47;;;;;;;0.87;0.40;;;16.90;1.00;;;;;;5035235;28;20645;-65
2021/11/01 00:37:13;;;;;;;0.40;0.20;;;16.80;1.00;;;;;;5034895;28;20209;-66
2021/11/01 00:39:39;;;;;;;0.40;0.10;;;16.60;1.00;;;;;;5034133;28;20431;-68
2021/11/01 00:42:06;;;;;;;0.40;0.20;;;16.50;1.00;;;;;;5033853;28;20177;-65
2021/11/01 00:44:32;;;;;;;0.40;0.20;;;16.50;1.00;;;;;;5034864;28;20188;-65
2021/11/01 00:46:58;;;;;;;0.50;0.20;;;16.50;1.00;;;;;;5034747;28;20428;-65
2021/11/01 00:49:25;;;;;;;0.40;0.20;;;16.40;1.00;;;;;;5016237;28;20710;-67
2021/11/01 00:51:53;;;;;;;2.50;1.57;;;16.40;30.70;;;;;;5034794;28;20581;-66
2021/11/01 00:54:19;;;;;;;0.40;0.10;;;16.40;60.90;;;;;;5034654;28;20424;-65
2021/11/01 00:56:44;;;;;;;0.40;0.20;;;16.20;99.90;;;;;;5034370;28;20785;-65
2021/11/01 00:59:10;;;;;;;0.40;0.20;;;16.10;99.90;;;;;;5034307;28;20209;-65
2021/11/01 01:01:38;;;;;;;0.50;0.30;;;16.10;99.90;;;;;;5034295;28;20304;-65
2021/11/01 01:04:03;;;;;;;0.40;0.27;;;16.10;99.90;;;;;;5016979;28;20189;-65
2021/11/01 01:06:30;;;;;;;0.53;0.27;;;16.00;99.90;;;;;;5034223;28;20761;-65
2021/11/01 01:08:55;;;;;;;1.27;0.77;;;16.00;99.90;;;;;;5016502;28;20627;-65
2021/11/01 01:11:21;;;;;;;0.80;0.70;;;15.80;99.90;;;;;;5016677;28;20435;-65
2021/11/01 01:13:51;;;;;;;1.37;0.30;;;15.60;1.00;;;;;;5034034;28;20284;-65
2021/11/01 01:18:51;;;;;;;0.75;0.30;;;15.30;1.00;;;;;;5034054;28;20607;-68
2021/11/01 01:24:02;;;;;;;0.40;0.20;;;15.40;1.00;;;;;;5034368;28;20231;-66
2021/11/01 01:26:28;;;;;;;0.88;0.52;;;15.40;99.90;;;;;;5033819;28;20185;-66
2021/11/01 01:28:54;;;;;;;0.40;0.20;;;15.30;99.90;;;;;;5016191;28;20239;-65
2021/11/01 01:31:20;;;;;;;3.43;1.53;;;15.20;1.00;;;;;;5033876;28;20177;-67
2021/11/01 01:33:47;;;;;;;0.65;0.40;;;15.10;1.00;;;;;;5033941;28;20428;-67
2021/11/01 01:36:12;;;;;;;0.40;0.20;;;14.90;1.00;;;;;;5033531;28;20310;-69
2021/11/01 01:38:38;;;;;;;0.40;0.20;;;14.80;1.00;;;;;;5033492;28;20608;-66
2021/11/01 01:41:39;;;;;;;0.40;0.20;;;14.80;1.00;;;;;;5033815;28;20220;-66
2021/11/01 01:44:05;;;;;;;0.35;0.10;;;14.90;71.30;;;;;;5029757;28;20274;-67
2021/11/01 01:46:30;;;;;;;1.37;0.40;;;14.80;39.90;;;;;;5033574;28;20261;-69
2021/11/01 01:48:57;;;;;;;0.40;0.20;;;14.70;99.90;;;;;;5033820;28;20182;-69
2021/11/01 01:51:26;;;;;;;0.40;0.20;;;14.70;99.90;;;;;;5033952;28;20182;-69
2021/11/01 01:53:52;;;;;;;0.40;0.30;;;14.80;99.90;;;;;;5033725;28;20186;-66
2021/11/01 01:56:19;;;;;;;0.40;0.30;;;14.60;99.90;;;;;;5033545;28;20197;-68
2021/11/01 01:58:50;;;;;;;0.40;0.30;;;14.70;99.90;;;;;;5033366;28;20312;-68
2021/11/01 02:01:19;;;;;;;0.40;0.20;;;14.80;99.90;;;;;;5034760;28;20181;-66
2021/11/01 02:03:47;;;;;;;0.40;0.13;;;14.70;99.90;;;;;;5037389;28;20182;-66
2021/11/01 02:06:14;;;;;;;0.40;0.20;;;14.80;99.90;;;;;;5037289;28;20505;-66
2021/11/01 02:08:45;;;;;;;0.35;0.10;;;14.90;99.90;;;;;;5037254;28;20636;-65
2021/11/01 02:11:22;;;;;;;0.40;0.10;;;14.90;99.90;;;;;;5037542;28;20516;-69
2021/11/01 02:13:51;;;;;;;0.40;0.20;;;14.80;99.90;;;;;;5037250;28;20279;-66
2021/11/01 02:16:17;;;;;;;0.32;0.20;;;14.90;99.90;;;;;;5037335;28;20205;-67
2021/11/01 02:18:48;;;;;;;0.55;0.55;;;14.90;99.90;;;;;;5037298;28;20189;-69
2021/11/01 02:21:46;;;;;;;0.40;0.30;;;14.80;99.90;;;;;;5037363;28;20231;-67
2021/11/01 02:24:34;;;;;;;0.60;0.30;;;14.60;99.90;;;;;;5037319;28;20188;-69
2021/11/01 02:27:01;;;;;;;0.40;0.20;;;14.20;1.00;;;;;;5037274;28;20189;-68
2021/11/01 02:29:30;;;;;;;0.52;0.52;;;14.10;1.00;;;;;;5037046;28;20182;-68
2021/11/01 02:31:56;;;;;;;0.35;0.22;;;14.10;1.00;;;;;;5037142;28;20173;-68
2021/11/01 02:34:22;;;;;;;0.30;0.10;;;14.20;1.00;;;;;;5036925;28;20627;-68
2021/11/01 02:36:48;;;;;;;0.30;0.10;;;14.20;1.00;;;;;;5037022;28;20220;-69
2021/11/01 02:39:15;;;;;;;0.30;0.10;;;14.30;1.00;;;;;;5036867;28;20247;-67
2021/11/01 02:41:41;;;;;;;0.30;0.10;;;14.30;1.00;;;;;;5019666;28;20801;-66
2021/11/01 02:44:09;;;;;;;0.30;0.20;;;14.20;1.00;;;;;;5037554;28;20544;-69
2021/11/01 02:46:35;;;;;;;0.30;0.20;;;14.30;1.00;;;;;;5037286;28;20261;-65
2021/11/01 02:49:01;;;;;;;0.30;0.20;;;14.30;1.00;;;;;;5036561;28;20174;-66
2021/11/01 02:51:28;;;;;;;3.90;0.85;;;14.10;1.00;;;;;;5036815;28;20603;-65
2021/11/01 02:53:56;;;;;;;0.30;0.20;;;13.90;1.00;;;;;;5036745;28;20197;-65
2021/11/01 02:56:23;;;;;;;0.30;0.20;;;14.10;1.00;;;;;;5036442;28;20198;-65
2021/11/01 02:58:48;;;;;;;0.40;0.30;;;14.10;1.00;;;;;;5036694;28;20181;-66
2021/11/01 03:01:17;;;;;;;0.30;0.10;;;14.20;1.00;;;;;;5036840;28;20176;-69
2021/11/01 03:03:43;;;;;;;0.30;0.20;;;14.10;1.00;;;;;;5018077;28;20439;-69
2021/11/01 03:06:11;;;;;;;0.30;0.20;;;14.10;1.00;;;;;;5036689;28;20178;-66
2021/11/01 03:08:37;;;;;;;0.30;0.10;;;14.20;1.00;;;;;;5036418;28;20183;-67
2021/11/01 03:11:06;;;;;;;0.30;0.20;;;14.10;1.00;;;;;;5036600;28;20186;-65
2021/11/01 03:13:34;;;;;;;0.30;0.20;;;14.00;1.00;;;;;;5018020;28;20232;-68
2021/11/01 03:16:03;;;;;;;0.30;0.20;;;14.10;1.00;;;;;;5036429;28;20193;-68
2021/11/01 03:18:34;;;;;;;0.30;0.20;;;13.90;23.50;;;;;;5036403;28;20235;-67
2021/11/01 03:21:05;;;;;;;0.32;0.25;;;13.80;89.40;;;;;;5035518;28;20193;-67
2021/11/01 03:23:33;;;;;;;0.30;0.20;;;13.70;99.90;;;;;;5036311;28;20174;-66
2021/11/01 03:26:10;;;;;;;0.30;0.10;;;13.50;99.90;;;;;;5036125;28;20188;-65
2021/11/01 03:28:36;;;;;;;0.30;0.20;;;13.40;99.90;;;;;;5035872;28;20182;-65
2021/11/01 03:31:05;;;;;;;0.40;0.20;;;13.40;99.90;;;;;;5036003;28;20206;-65
2021/11/01 03:33:37;;;;;;;0.30;0.20;;;13.30;99.90;;;;;;5036061;28;20253;-64
2021/11/01 03:36:07;;;;;;;0.30;0.20;;;13.30;99.90;;;;;;5035940;28;20615;-65
2021/11/01 03:38:36;;;;;;;0.30;0.20;;;13.10;99.90;;;;;;5035651;28;20213;-65
2021/11/01 03:41:10;;;;;;;0.30;0.20;;;13.20;99.90;;;;;;5036170;28;20208;-67
2021/11/01 03:43:53;;;;;;;0.30;0.20;;;13.10;99.90;;;;;;5036142;28;20239;-67
2021/11/01 03:49:18;;;;;;;0.30;0.20;;;13.10;99.90;;;;;;4991970;28;20228;-69
2021/11/01 03:54:42;;;;;;;0.30;0.10;;;12.90;99.90;;;;;;4991679;28;20439;-69
2021/11/01 03:57:09;;;;;;;0.30;0.20;;;12.90;99.90;;;;;;5035705;28;20664;-68
2021/11/01 03:59:38;;;;;;;0.30;0.20;;;12.90;99.90;;;;;;5035469;28;20228;-67
2021/11/01 04:02:05;;;;;;;0.30;0.20;;;12.90;99.90;;;;;;5035523;28;20173;-67
2021/11/01 04:04:30;;;;;;;0.30;0.20;;;12.80;99.90;;;;;;5017985;28;20181;-67
2021/11/01 04:07:00;;;;;;;0.30;0.20;;;12.80;99.90;;;;;;5035363;28;20650;-67
2021/11/01 04:09:26;;;;;;;7.75;7.10;;;12.90;99.90;;;;;;5035205;28;20184;-65
2021/11/01 04:11:53;;;;;;;0.30;0.20;;;12.80;99.90;;;;;;5017890;28;20196;-65
2021/11/01 04:14:23;;;;;;;0.30;0.20;;;12.80;99.90;;;;;;5035208;28;20221;-66
2021/11/01 04:16:58;;;;;;;0.30;0.10;;;12.90;99.90;;;;;;5035228;28;20206;-66
2021/11/01 04:21:55;;;;;;;0.30;0.10;;;12.90;99.90;;;;;;5035345;28;20466;-66
2021/11/01 04:24:21;;;;;;;0.30;0.10;;;12.80;99.90;;;;;;5035245;28;20274;-66
2021/11/01 04:26:48;;;;;;;0.30;0.20;;;12.80;99.90;;;;;;5017466;28;20185;-66
2021/11/01 04:29:14;;;;;;;0.30;0.20;;;12.80;99.90;;;;;;5035345;28;20181;-66
2021/11/01 04:31:43;;;;;;;0.30;0.20;;;12.80;99.90;;;;;;5035123;28;20182;-67
2021/11/01 04:34:25;;;;;;;1.15;0.35;;;12.80;99.90;;;;;;5035123;28;20213;-69
2021/11/01 04:36:53;;;;;;;0.30;0.20;;;12.80;99.90;;;;;;5034827;28;20205;-69
2021/11/01 04:55:24;;;;;;;0.30;0.10;;;12.70;99.90;;;;;;5034579;28;20668;-66
2021/11/01 04:57:51;;;;;;;0.30;0.20;;;12.90;99.90;;;;;;5034233;28;20213;-66
2021/11/01 05:00:17;;;;;;;0.30;0.20;;;12.90;99.90;;;;;;5034253;28;20177;-66
2021/11/01 05:02:47;;;;;;;0.30;0.10;;;12.80;99.90;;;;;;5034231;28;20208;-66
2021/11/01 05:05:13;;;;;;;0.30;0.20;;;12.80;99.90;;;;;;5034252;28;20435;-66
2021/11/01 05:07:39;;;;;;;1.20;0.80;;;12.80;99.90;;;;;;5016824;28;20626;-66
2021/11/01 05:10:23;;;;;;;0.40;0.30;;;12.90;99.90;;;;;;5033745;28;20248;-66
2021/11/01 05:12:49;;;;;;;0.30;0.20;;;12.80;99.90;;;;;;5033895;28;20201;-66
2021/11/01 05:15:32;;;;;;;0.30;0.20;;;12.80;99.90;;;;;;5016525;28;20178;-66
2021/11/01 05:18:17;;;;;;;0.30;0.17;;;12.70;99.90;;;;;;5033933;28;20550;-66
2021/11/01 05:21:32;;;;;;;0.30;0.20;;;12.70;99.90;;;;;;5016603;28;20626;-65
2021/11/01 05:23:36;;;;;;;0.43;0.20;;;12.60;99.90;;;;;;5028378;28;20199;-65
2021/11/01 05:26:09;;;;;;;1.00;0.95;;;12.60;99.90;;;;;;5033972;28;20188;-65
2021/11/01 05:28:43;;;;;;;0.60;0.50;;;12.50;99.90;;;;;;5033801;28;20169;-68
2021/11/01 05:31:16;;;;;;;0.30;0.20;;;12.60;99.90;;;;;;5033633;28;20181;-67
2021/11/01 05:34:01;;;;;;;0.30;0.17;;;12.50;99.90;;;;;;5034017;28;20178;-66
2021/11/01 05:36:27;;;;;;;0.30;0.17;;;12.30;99.90;;;;;;5015840;28;20685;-66
2021/11/01 05:38:52;;;;;;;1.25;1.25;;;12.40;99.90;;;;;;5033462;28;20185;-66
2021/11/01 05:41:19;;;;;;;0.30;0.20;;;12.40;99.90;;;;;;5033866;28;20641;-69
2021/11/01 05:43:45;;;;;;;0.30;0.20;;;12.40;99.90;;;;;;5033590;28;20184;-69
2021/11/01 05:46:12;;;;;;;0.68;0.68;;;12.50;99.90;;;;;;5033699;28;20178;-69
2021/11/01 05:48:38;;;;;;;0.30;0.20;;;12.40;99.90;;;;;;5033350;28;20178;-69
2021/11/01 05:51:06;;;;;;;0.30;0.20;;;12.50;99.90;;;;;;5033473;28;20178;-69
2021/11/01 05:53:37;;;;;;;0.30;0.20;;;12.50;99.90;;;;;;5016041;28;20535;-69
2021/11/01 05:56:19;;;;;;;0.30;0.20;;;12.60;99.90;;;;;;5033649;28;20220;-68
2021/11/01 06:07:00;;;;;;;0.30;0.20;;;12.50;99.90;;;;;;5033660;28;20243;-68
2021/11/01 06:14:36;;;;;;;0.30;0.10;;;12.50;99.90;;;;;;5029281;28;20231;-70
2021/11/01 06:17:02;;;;;;;0.43;0.43;;;12.60;99.90;;;;;;5033345;28;20263;-70
2021/11/01 06:19:28;;;;;;;0.30;0.30;;;12.50;99.90;;;;;;5015556;28;20173;-70
2021/11/01 06:21:54;;;;;;;0.30;0.20;;;12.40;99.90;;;;;;5031833;28;20265;-73
2021/11/01 06:24:43;;;;;;;0.30;0.20;;;12.30;99.90;;;;;;5032584;28;20424;-69
2021/11/01 06:27:11;;;;;;;0.93;0.82;;;12.40;99.90;;;;;;5030050;28;20767;-66
2021/11/01 06:29:55;;;;;;;0.30;0.20;;;12.40;99.90;;;;;;5032442;28;20232;-66
2021/11/01 06:49:43;;;;;;;0.30;0.20;;;12.60;99.90;;;;;;5030506;28;20208;-69
2021/11/01 06:54:52;;;;;;;0.30;0.20;;;12.30;99.90;;;;;;5014036;28;20192;-70
2021/11/01 06:57:31;;;;;;;0.30;0.20;;;12.30;99.90;;;;;;5034687;28;20250;-69
2021/11/01 07:16:31;;;;;;;0.30;0.10;;;12.50;99.90;;;;;;5035522;28;20208;-69
2021/11/01 08:24:37;;;;;;;0.70;0.60;;;13.10;1.00;;;;;;5034810;28;20184;-65
2021/11/01 08:41:00;;;;;;;0.30;0.10;;;13.10;1.00;;;;;;5036049;28;20255;-66
2021/11/01 08:46:25;;;;;;;0.30;0.20;;;13.20;1.00;;;;;;5034457;28;20165;-68
2021/11/01 08:49:02;;;;;;;0.30;0.20;;;13.20;1.00;;;;;;5034356;28;20193;-67
2021/11/01 09:04:47;;;;;;;0.30;0.20;;;13.40;1.00;;;;;;5033878;28;20181;-66
2021/11/01 09:07:28;;;;;;;1.75;1.65;;;13.60;1.00;;;;;;5034293;28;20268;-67
2021/11/01 09:23:39;;;;;;;0.30;0.17;;;13.90;1.00;;;;;;5033609;28;20184;-65
2021/11/01 09:26:15;;;;;;;0.30;0.10;;;14.00;1.00;;;;;;5033718;28;20231;-67
2021/11/01 09:37:05;;;;;;;0.32;0.20;;;13.70;1.00;;;;;;5033725;28;20282;-67
2021/11/01 09:40:52;;;;;;;1.67;0.50;;;13.70;1.00;;;;;;5033267;28;20196;-66
2021/11/01 09:42:17;;;;;;;0.40;0.30;;;13.80;1.00;;;;;;5031913;28;20185;-67
2021/11/01 09:44:47;;;;;;;0.30;0.20;;;13.70;1.00;;;;;;5016021;28;20205;-68
2021/11/01 09:47:14;;;;;;;0.50;0.50;;;13.50;1.00;;;;;;5033483;28;20243;-69
2021/11/01 09:49:40;;;;;;;1.35;0.43;;;13.40;1.00;;;;;;5033254;28;20177;-69
2021/11/01 09:52:08;;;;;;;0.30;0.30;;;13.40;48.90;;;;;;5033365;28;20182;-67
2021/11/01 09:54:37;;;;;;;2.35;0.32;;;13.20;81.70;;;;;;5033091;28;20432;-64
2021/11/01 09:57:08;;;;;;;0.40;0.20;;;13.30;99.90;;;;;;5033245;28;20220;-64
2021/11/01 09:59:37;;;;;;;0.98;0.47;;;13.40;8.40;;;;;;5034396;28;20569;-68
2021/11/01 10:02:07;;;;;;;0.30;0.20;;;13.30;1.00;;;;;;5033251;28;20189;-68
2021/11/01 10:04:35;;;;;;;0.30;0.20;;;13.30;1.00;;;;;;5033144;28;20180;-67
2021/11/01 10:09:43;;;;;;;0.30;0.20;;;13.60;1.00;;;;;;5033237;28;20181;-68
2021/11/01 10:12:11;;;;;;;0.30;0.20;;;13.70;99.90;;;;;;5032310;28;20193;-63
2021/11/01 10:14:54;;;;;;;0.30;0.20;;;13.80;99.90;;;;;;5031391;28;20623;-67
2021/11/01 10:17:35;;;;;;;0.30;0.20;;;13.80;99.90;;;;;;5032214;28;20204;-67
2021/11/01 10:20:07;;;;;;;0.30;0.20;;;13.90;1.00;;;;;;5015382;28;20182;-63
2021/11/01 10:22:37;;;;;;;0.40;0.20;;;14.40;1.00;;;;;;5015431;28;20206;-63
2021/11/01 10:25:05;;;;;;;0.55;0.30;;;14.80;99.90;;;;;;5017222;28;20247;-64
2021/11/01 10:27:37;;;;;;;0.45;0.35;;;14.80;99.90;;;;;;5017354;28;20189;-64
2021/11/01 10:30:10;;;;;;;0.40;0.20;;;14.50;99.90;;;;;;5017240;28;20248;-64
2021/11/01 10:32:41;;;;;;;0.40;0.30;;;14.50;1.00;;;;;;5017089;28;20178;-67
2021/11/01 10:35:20;;;;;;;1.85;1.10;;;14.60;1.00;;;;;;4999869;28;20182;-67
2021/11/01 10:40:52;;;;;;;0.40;0.20;;;14.50;1.00;;;;;;5017472;28;20174;-68
2021/11/01 10:43:49;;;;;;;0.40;0.20;;;14.80;24.50;;;;;;5016879;28;20174;-64
2021/11/01 11:11:41;;;;;;;2.47;0.30;;;15.60;83.40;;;;;;5035263;28;20660;-64
2021/11/01 11:14:08;;;;;;;0.40;0.40;;;15.30;32.50;;;;;;5032521;28;20451;-64
2021/11/01 11:17:08;;;;;;;0.40;0.30;;;15.10;99.90;;;;;;5033462;28;20270;-64
2021/11/01 11:22:55;;;;;;;0.30;0.20;;;15.70;1.00;;;;;;5035367;28;20488;-64
2021/11/01 11:31:20;;;;;;;0.40;0.20;;;15.60;1.00;;;;;;5020235;28;20177;-64
2021/11/01 11:47:37;;;;;;;7.83;0.73;;;16.10;54.80;;;;;;5034360;28;20542;-69
2021/11/01 11:50:20;;;;;;;0.40;0.20;;;15.90;1.00;;;;;;5035174;28;20450;-65
2021/11/01 11:52:47;;;;;;;0.40;0.20;;;15.30;99.90;;;;;;5015946;28;20272;-69
2021/11/01 11:55:20;;;;;;;0.70;0.52;;;15.20;99.90;;;;;;5017764;28;20182;-69
2021/11/01 11:57:56;;;;;;;0.40;0.30;;;15.10;99.90;;;;;;5017970;28;20213;-69
2021/11/01 12:00:24;;;;;;;1.15;0.40;;;15.20;1.00;;;;;;5017642;28;20506;-69
2021/11/01 12:02:50;;;;;;;0.40;0.20;;;15.30;99.90;;;;;;5034998;28;20200;-69
2021/11/01 12:05:49;;;;;;;0.50;0.30;;;15.50;1.00;;;;;;5035127;28;20253;-69
2021/11/01 12:18:53;;;;;;;0.40;0.20;;;15.50;1.00;;;;;;5052115;28;20254;-69
2021/11/01 12:21:19;;;;;;;0.40;0.20;;;15.50;1.00;;;;;;5026393;28;20606;-69
2021/11/01 12:23:45;;;;;;;0.40;0.20;;;15.80;1.00;;;;;;5034403;28;20420;-69
2021/11/01 12:26:13;;;;;;;0.40;0.20;;;16.00;1.00;;;;;;5035012;28;20182;-69
2021/11/01 12:28:43;;;;;;;0.70;0.40;;;15.90;1.00;;;;;;5035191;28;20239;-69
2021/11/01 12:31:12;;;;;;;2.60;1.70;;;16.00;1.00;;;;;;5034792;28;20177;-67
2021/11/01 12:33:41;;;;;;;0.40;0.30;;;15.90;1.00;;;;;;5032740;28;20455;-67
2021/11/01 12:36:09;;;;;;;0.50;0.40;;;15.70;1.00;;;;;;5017092;28;20657;-68
2021/11/01 12:38:47;;;;;;;0.60;0.40;;;15.90;1.00;;;;;;5034342;28;20181;-68
2021/11/01 12:56:59;;;;;;;0.40;0.15;;;15.20;99.90;;;;;;5014343;28;20244;-65
2021/11/01 12:57:45;;;;;;;0.40;0.20;;;15.50;51.10;;;;;;5013490;28;20283;-67
2021/11/01 13:00:12;;;;;;;0.40;0.20;;;15.40;1.00;;;;;;5005490;28;20587;-66
2021/11/01 13:02:41;;;;;;;0.40;0.20;;;15.20;1.00;;;;;;5015845;28;20185;-68
2021/11/01 13:05:12;;;;;;;0.40;0.20;;;15.30;1.00;;;;;;5033741;28;20178;-69
2021/11/01 13:07:51;;;;;;;0.40;0.25;;;15.20;1.00;;;;;;5034171;28;20449;-69
2021/11/01 13:10:53;;;;;;;0.95;0.93;;;15.20;1.00;;;;;;5034246;28;20187;-68
2021/11/01 13:19:04;;;;;;;0.30;0.10;;;15.10;99.90;;;;;;5053844;28;20184;-69
2021/11/01 13:21:35;;;;;;;0.30;0.20;;;15.30;28.60;;;;;;5023664;28;20176;-66
2021/11/01 13:24:04;;;;;;;0.60;0.50;;;15.00;99.90;;;;;;5034117;28;20610;-67
2021/11/01 13:35:13;;;;;;;0.40;0.20;;;14.30;99.90;;;;;;5033519;28;20197;-70
2021/11/01 13:37:41;;;;;;;0.50;0.40;;;14.20;1.00;;;;;;5033286;28;20196;-70
2021/11/01 13:40:13;;;;;;;0.60;0.57;;;14.30;1.00;;;;;;5015806;28;20610;-70
2021/11/01 13:42:52;;;;;;;0.40;0.20;;;14.40;1.00;;;;;;5033367;28;20566;-70
2021/11/01 13:45:20;;;;;;;0.40;0.20;;;14.40;1.00;;;;;;5033341;28;20257;-68
2021/11/01 13:47:51;;;;;;;0.40;0.20;;;14.40;1.00;;;;;;5033604;28;20181;-71
2021/11/01 13:50:19;;;;;;;3.53;1.75;;;14.40;1.00;;;;;;5033152;28;20184;-69
2021/11/01 13:53:07;;;;;;;0.35;0.20;;;14.40;99.90;;;;;;5033156;28;20213;-69
2021/11/01 13:55:46;;;;;;;0.40;0.20;;;14.50;1.00;;;;;;5033226;28;20192;-67
2021/11/01 14:10:51;;;;;;;0.60;0.57;;;14.50;1.00;;;;;;5033220;28;20572;-66
2021/11/01 15:11:14;;;;;;;0.30;0.20;;;14.00;1.00;;;;;;5036996;28;20165;-67
2021/11/01 15:16:26;;;;;;;0.30;0.17;;;13.90;99.90;;;;;;5036486;28;20189;-71
2021/11/01 15:19:02;;;;;;;0.30;0.20;;;13.80;1.00;;;;;;5036241;28;20177;-65
2021/11/01 15:21:52;;;;;;;0.40;0.20;;;13.80;1.00;;;;;;5036628;28;20223;-66
2021/11/01 15:35:20;;;;;;;0.30;0.20;;;14.20;99.90;;;;;;5036002;28;20182;-69
2021/11/01 15:38:08;;;;;;;0.40;0.20;;;14.00;99.90;;;;;;5036117;28;20259;-69
2021/11/01 16:17:07;;;;;;;0.40;0.30;;;12.90;99.90;;;;;;5035738;28;20266;-65
2021/11/01 16:19:06;;;;;;;0.30;0.20;;;12.80;1.00;;;;;;5029574;28;20190;-64
2021/11/01 16:21:32;;;;;;;0.30;0.20;;;12.70;99.90;;;;;;5035202;28;20174;-65
2021/11/01 16:23:58;;;;;;;0.30;0.20;;;12.70;99.90;;;;;;5035495;28;20594;-65
2021/11/01 16:28:55;;;;;;;0.30;0.20;;;12.70;99.90;;;;;;5035282;28;20487;-66
2021/11/01 16:31:30;;;;;;;0.30;0.20;;;12.80;99.90;;;;;;5035255;28;20647;-65
2021/11/01 16:34:39;;;;;;;0.30;0.20;;;12.60;99.90;;;;;;5017668;28;20189;-66
2021/11/01 16:40:06;;;;;;;0.30;0.20;;;12.80;99.90;;;;;;4994564;28;20250;-66
2021/11/01 16:42:35;;;;;;;0.52;0.52;;;12.90;27.80;;;;;;5032198;28;20197;-67
2021/11/01 16:45:09;;;;;;;0.30;0.20;;;13.00;1.00;;;;;;5035319;28;20480;-68
2021/11/01 16:47:36;;;;;;;0.30;0.10;;;13.00;99.90;;;;;;5017730;28;20185;-68
2021/11/01 16:50:05;;;;;;;0.30;0.20;;;12.90;1.00;;;;;;5017558;28;20182;-68
2021/11/01 16:52:31;;;;;;;0.30;0.20;;;12.90;1.00;;;;;;5035100;28;20213;-68
2021/11/01 16:54:59;;;;;;;0.60;0.40;;;12.80;68.20;;;;;;5033520;28;20220;-68
2021/11/01 16:57:31;;;;;;;0.30;0.20;;;12.50;99.90;;;;;;5033381;28;20212;-68
2021/11/01 17:08:06;;;;;;;0.30;0.10;;;12.10;99.90;;;;;;5035668;28;20177;-68
2021/11/01 17:21:36;;;;;;;0.30;0.20;;;11.60;99.90;;;;;;5014564;28;20263;-68
2021/11/01 17:26:45;;;;;;;0.30;0.20;;;11.40;1.00;;;;;;5014256;28;20193;-67
2021/11/01 18:44:34;;;;;;;0.30;0.20;;;10.10;99.90;;;;;;5036562;28;20181;-67
2021/11/01 18:52:36;;;;;;;0.30;0.20;;;10.10;89.80;;;;;;5037157;28;20251;-66
2021/11/01 18:55:05;;;;;;;0.30;0.10;;;10.00;90.80;;;;;;5036372;28;20182;-65
2021/11/01 18:57:33;;;;;;;0.30;0.20;;;9.90;99.90;;;;;;5036528;28;20209;-67
2021/11/01 19:00:04;;;;;;;0.30;0.20;;;9.90;99.90;;;;;;5036837;28;20178;-67
2021/11/01 19:05:33;;;;;;;0.30;0.20;;;10.00;99.90;;;;;;5027606;28;20204;-63
2021/11/01 19:08:08;;;;;;;0.30;0.20;;;10.00;92.70;;;;;;5036671;28;20650;-66
2021/11/01 19:17:24;;;;;;;0.30;0.20;;;9.90;99.90;;;;;;4995839;28;20185;-64
2021/11/01 20:14:45;;;;;;;0.30;0.20;;;9.60;99.90;;;;;;5034241;28;20283;-67
2021/11/01 21:26:30;;;;;;;0.30;0.20;;;9.10;99.90;;;;;;5034865;28;20196;-71
2021/11/01 21:28:55;;;;;;;0.30;0.20;;;9.10;99.90;;;;;;5016477;28;20184;-69
2021/11/01 21:31:22;;;;;;;0.20;0.20;;;9.10;99.90;;;;;;5034489;28;20190;-67
2021/11/01 21:33:55;;;;;;;0.20;0.20;;;9.10;99.90;;;;;;5034145;28;20173;-67
2021/11/01 21:36:24;;;;;;;0.30;0.20;;;9.00;99.90;;;;;;5034536;28;20177;-67
2021/11/01 21:38:57;;;;;;;3.70;1.10;;;9.00;99.90;;;;;;5037270;28;20626;-67
2021/11/01 21:41:26;;;;;;;2.47;2.28;;;9.20;99.90;;;;;;5019525;28;20191;-68
2021/11/01 21:43:52;;;;;;;0.30;0.20;;;9.20;99.90;;;;;;5016078;28;20185;-69
2021/11/01 21:46:18;;;;;;;0.30;0.20;;;9.20;99.90;;;;;;5016057;28;20181;-68
2021/11/01 21:48:44;;;;;;;0.30;0.23;;;9.10;99.90;;;;;;5015996;28;20704;-69
2021/11/01 21:51:13;;;;;;;0.30;0.20;;;9.20;99.90;;;;;;5033830;28;20689;-68
2021/11/01 21:53:39;;;;;;;17.23;15.65;;;9.30;99.90;;;;;;5033353;28;20173;-67
2021/11/01 21:56:09;;;;;;;0.28;0.25;;;9.10;99.90;;;;;;5033612;28;20291;-69
2021/11/01 21:58:55;;;;;;;0.20;0.20;;;9.10;99.90;;;;;;5015852;28;20216;-68
2021/11/01 22:17:43;;;;;;;0.68;0.68;;;8.90;99.90;;;;;;5034574;28;20536;-69
2021/11/01 22:20:20;;;;;;;0.20;0.20;;;8.80;99.90;;;;;;5038066;28;20172;-68
2021/11/01 22:22:55;;;;;;;0.30;0.20;;;8.80;99.90;;;;;;5020307;28;20188;-69
2021/11/01 22:56:49;;;;;;;0.20;0.10;;;8.70;99.90;;;;;;5036916;28;20212;-67
2021/11/01 22:59:15;;;;;;;0.20;0.20;;;8.80;99.90;;;;;;5036632;28;20176;-66
2021/11/01 23:01:42;;;;;;;0.20;0.20;;;8.80;99.90;;;;;;5037718;28;20256;-67
2021/11/01 23:31:49;;;;;;;0.20;0.20;;;8.80;99.90;;;;;;5036857;28;20200;-67
2021/11/01 23:34:16;;;;;;;0.20;0.17;;;9.00;99.90;;;;;;5036310;28;20184;-69
2021/11/01 23:36:43;;;;;;;0.30;0.20;;;8.90;99.90;;;;;;5036496;28;20209;-68
2021/11/01 23:39:12;;;;;;;0.20;0.10;;;8.80;99.90;;;;;;5018700;28;20185;-68
2021/11/01 23:41:39;;;;;;;5.97;2.47;;;8.80;99.90;;;;;;5036294;28;20224;-68
2021/11/01 23:44:06;;;;;;;0.20;0.20;;;8.80;99.90;;;;;;5036156;28;20181;-66
2021/11/01 23:46:33;;;;;;;0.30;0.30;;;8.80;99.90;;;;;;5036114;28;20191;-67
2021/11/01 23:48:59;;;;;;;0.20;0.20;;;8.70;99.90;;;;;;5035937;28;20188;-68
2021/11/01 23:51:32;;;;;;;0.20;0.20;;;8.60;99.90;;;;;;5036135;28;20491;-69
2021/11/01 23:57:01;;;;;;;0.20;0.20;;;8.40;99.90;;;;;;4975274;28;20279;-69
2021/11/01 23:59:27;;;;;;;0.80;0.40;;;8.40;99.90;;;;;;5022852;28;20221;-67
